Ana Sayfa
METAR-TAF:

METAR-TAF

Havaalanları :

Farmville Regional Airport

Farmville, Virginia, Amerika Birleşik Devletleri

Enlem: 37-21N, Boylam: 078-26W, yükseklik: 125 m

Güncel hava durumu gözlemi

Rapor saat 19:55 UTC de 27 dakika önce yapıldı.
Rüzgar doğudan 6 kt
Sıcaklık 25°C
Nem 34%
Basınç 1019 hPa
Görüş mesafesi: 16.1 km
7000 ft yükseklikte parçalı çok bulutlu
8000 ft yükseklikte parçalı çok bulutlu

METAR: KFVX 311955Z AUTO 10006KT 10SM BKN070 BKN080 25/08 A3010 RMK AO2 T02450081

Saat: 16:22 (20:22 UTC)


TAF: eksik

4.000'den fazla havaalanı için hava durumu gözlemleri ve tahminleri (METAR ve TAF raporları).

Kullanılabilir istasyonlar harita üzerinde sarı ve kırmızı noktalarla gösterilir.

İstasyonun adını görmek için fareyi noktanın üzerinde gezdirin.

Sonrasında hava gözlem ve tahminlerini görmek için tıklayın.

Haritayı değiştirmek için: yaklaştırmak için siyah artı işaretli yeşil düğmeye ve uzaklaştırmak için de eksi işaretli düğmeye hızla tıklayın; bitişik haritalar için yeşil okları kullanın.


METAR-TAF: